Time;durP1;ratioP1;P1;durP2;ratioP2;P2;SDS_P1;SDS_P2;PMS_P1;PMS_P2;Temp;Humidity;BMP_temperature;BMP_pressure;BME280_temperature;BME280_humidity;BME280_pressure;Samples;Min_cycle;Max_cycle;Signal;HPM_P1;HPM_P2
2022/09/22 00:00:26;;;;;;;1.27;0.70;;;;;;;;;;5067081;28;20676;-70
2022/09/22 00:02:57;;;;;;;0.60;0.40;;;;;;;;;;5067706;28;20052;-69
2022/09/22 00:05:24;;;;;;;0.43;0.40;;;;;;;;;;5067290;28;20028;-69
2022/09/22 00:07:52;;;;;;;0.03;0.03;;;;;;;;;;5068047;28;20028;-69
2022/09/22 00:10:22;;;;;;;1.23;0.60;;;;;;;;;;5072176;28;20027;-69
2022/09/22 00:12:49;;;;;;;2.47;0.83;;;;;;;;;;5072656;28;20487;-72
2022/09/22 00:15:19;;;;;;;1.93;0.13;;;;;;;;;;5072279;28;20051;-70
2022/09/22 00:17:45;;;;;;;7.23;0.70;;;;;;;;;;5072658;28;20130;-67
2022/09/22 00:20:12;;;;;;;0.93;0.37;;;;;;;;;;5070902;28;20027;-67
2022/09/22 00:22:40;;;;;;;0.07;0.07;;;;;;;;;;5066917;28;20021;-71
2022/09/22 00:25:08;;;;;;;0.40;0.30;;;;;;;;;;5067220;28;20032;-69
2022/09/22 00:27:35;;;;;;;1.87;0.77;;;;;;;;;;5067611;28;20028;-70
2022/09/22 00:30:04;;;;;;;1.10;0.50;;;;;;;;;;5067622;28;20045;-70
2022/09/22 00:32:31;;;;;;;0.53;0.27;;;;;;;;;;5072445;28;21299;-69
2022/09/22 00:34:58;;;;;;;1.93;0.57;;;;;;;;;;5071856;28;20028;-69
2022/09/22 00:37:24;;;;;;;0.40;0.30;;;;;;;;;;5072478;28;20086;-69
2022/09/22 00:39:52;;;;;;;9.57;0.80;;;;;;;;;;5072248;28;20032;-69
2022/09/22 00:42:19;;;;;;;3.10;1.30;;;;;;;;;;5071293;28;20021;-69
2022/09/22 00:44:46;;;;;;;1.03;0.60;;;;;;;;;;5066474;28;20028;-70
2022/09/22 00:47:16;;;;;;;0.40;0.20;;;;;;;;;;5067196;28;20029;-69
2022/09/22 00:49:46;;;;;;;1.17;0.37;;;;;;;;;;5067289;28;20479;-69
2022/09/22 00:52:15;;;;;;;1.67;0.60;;;;;;;;;;5067413;28;20021;-69
2022/09/22 00:54:42;;;;;;;0.80;0.63;;;;;;;;;;5072711;28;20064;-69
2022/09/22 00:57:11;;;;;;;1.17;0.70;;;;;;;;;;5076079;28;20024;-69
2022/09/22 00:59:39;;;;;;;1.43;0.90;;;;;;;;;;5063261;28;20070;-69
2022/09/22 01:02:06;;;;;;;1.10;0.50;;;;;;;;;;5067915;28;20028;-69
2022/09/22 01:04:33;;;;;;;1.40;0.93;;;;;;;;;;5074509;28;20033;-69
2022/09/22 01:07:02;;;;;;;1.50;0.57;;;;;;;;;;5069794;28;20073;-69
2022/09/22 01:09:31;;;;;;;1.20;0.43;;;;;;;;;;5070182;28;20063;-69
2022/09/22 01:11:59;;;;;;;0.97;0.47;;;;;;;;;;5069416;28;20467;-69
2022/09/22 01:14:35;;;;;;;0.83;0.33;;;;;;;;;;5069613;28;20025;-69
2022/09/22 01:17:08;;;;;;;0.93;0.40;;;;;;;;;;5075079;28;20029;-69
2022/09/22 01:19:44;;;;;;;0.67;0.50;;;;;;;;;;5074261;28;20017;-69
2022/09/22 01:22:31;;;;;;;0.47;0.43;;;;;;;;;;5074707;28;20051;-69
2022/09/22 01:25:07;;;;;;;13.90;1.13;;;;;;;;;;5074636;28;20024;-69
2022/09/22 01:27:52;;;;;;;1.40;0.50;;;;;;;;;;5072939;28;20060;-69
2022/09/22 01:30:21;;;;;;;1.90;0.47;;;;;;;;;;5069878;28;20025;-69
2022/09/22 01:33:06;;;;;;;0.53;0.40;;;;;;;;;;5068985;28;20020;-69
2022/09/22 01:35:49;;;;;;;0.70;0.50;;;;;;;;;;5056294;28;20101;-69
2022/09/22 01:38:16;;;;;;;0.30;0.17;;;;;;;;;;5073527;28;20033;-69
2022/09/22 01:40:52;;;;;;;0.67;0.40;;;;;;;;;;5074640;28;20123;-69
2022/09/22 01:43:24;;;;;;;0.80;0.63;;;;;;;;;;5074698;28;20027;-69
2022/09/22 01:45:53;;;;;;;4.40;1.17;;;;;;;;;;5075042;28;20118;-69
2022/09/22 01:48:22;;;;;;;1.20;0.77;;;;;;;;;;5074538;28;20031;-69
2022/09/22 01:51:06;;;;;;;4.73;1.60;;;;;;;;;;5069559;28;20024;-69
2022/09/22 01:53:36;;;;;;;1.77;0.70;;;;;;;;;;5069721;28;20098;-69
2022/09/22 01:56:05;;;;;;;7.87;1.43;;;;;;;;;;5069016;28;20024;-69
2022/09/22 01:58:39;;;;;;;4.20;1.50;;;;;;;;;;5066867;28;20018;-70
2022/09/22 02:01:09;;;;;;;3.33;1.77;;;;;;;;;;5063019;28;20031;-69
2022/09/22 02:03:41;;;;;;;12.70;5.93;;;;;;;;;;5074814;28;20031;-69
2022/09/22 02:06:18;;;;;;;2.90;1.83;;;;;;;;;;5073879;28;20051;-69
2022/09/22 02:08:52;;;;;;;6.07;1.17;;;;;;;;;;5074649;28;20020;-69
2022/09/22 02:11:19;;;;;;;2.22;1.20;;;;;;;;;;5074109;28;20025;-69
2022/09/22 02:13:46;;;;;;;4.10;2.03;;;;;;;;;;5068987;28;20032;-69
2022/09/22 02:16:15;;;;;;;7.77;2.60;;;;;;;;;;5069795;28;20495;-69
2022/09/22 02:18:57;;;;;;;4.07;2.30;;;;;;;;;;5069801;28;20028;-69
2022/09/22 02:21:25;;;;;;;4.03;2.50;;;;;;;;;;5070017;28;20063;-69
2022/09/22 02:23:52;;;;;;;3.27;2.00;;;;;;;;;;5073965;28;20119;-69
2022/09/22 02:26:24;;;;;;;8.53;4.00;;;;;;;;;;5074452;28;20024;-69
2022/09/22 02:28:56;;;;;;;5.63;2.83;;;;;;;;;;5074757;28;20017;-69
2022/09/22 02:31:24;;;;;;;3.97;2.07;;;;;;;;;;5074541;28;20111;-69
2022/09/22 02:33:52;;;;;;;4.90;2.20;;;;;;;;;;5072933;28;20112;-69
2022/09/22 02:36:31;;;;;;;13.13;2.20;;;;;;;;;;5069438;28;20027;-69
2022/09/22 02:39:14;;;;;;;1.57;0.97;;;;;;;;;;5069421;28;20024;-69
2022/09/22 02:41:44;;;;;;;13.27;3.03;;;;;;;;;;5069220;28;20032;-67
2022/09/22 02:44:33;;;;;;;4.83;2.97;;;;;;;;;;5068245;28;20024;-68
2022/09/22 02:47:03;;;;;;;8.17;2.83;;;;;;;;;;5054459;28;20036;-68
2022/09/22 02:49:30;;;;;;;2.50;1.73;;;;;;;;;;5072062;28;20024;-68
2022/09/22 02:51:58;;;;;;;5.00;3.00;;;;;;;;;;5094327;28;20063;-68
2022/09/22 02:54:25;;;;;;;6.43;2.37;;;;;;;;;;5094151;28;20027;-68
2022/09/22 02:56:52;;;;;;;2.33;1.57;;;;;;;;;;5074081;28;20036;-68
2022/09/22 02:59:19;;;;;;;2.37;1.50;;;;;;;;;;5068407;28;20049;-68
2022/09/22 03:01:45;;;;;;;3.33;2.20;;;;;;;;;;5068897;28;20108;-68
2022/09/22 03:04:12;;;;;;;3.63;2.10;;;;;;;;;;5068843;28;20020;-68
2022/09/22 03:06:39;;;;;;;2.33;1.40;;;;;;;;;;5070139;28;20367;-68
2022/09/22 03:09:05;;;;;;;2.70;1.83;;;;;;;;;;5073824;28;20062;-68
2022/09/22 03:11:32;;;;;;;2.27;1.27;;;;;;;;;;5073819;28;20502;-68
2022/09/22 03:13:59;;;;;;;1.53;1.33;;;;;;;;;;5073609;28;20025;-68
2022/09/22 03:16:25;;;;;;;7.83;1.93;;;;;;;;;;5073222;28;20466;-68
2022/09/22 03:18:52;;;;;;;1.60;1.20;;;;;;;;;;5070809;28;20017;-68
2022/09/22 03:21:19;;;;;;;1.77;1.10;;;;;;;;;;5068060;28;20181;-69
2022/09/22 03:23:45;;;;;;;6.03;1.80;;;;;;;;;;5068490;28;20479;-68
2022/09/22 03:26:12;;;;;;;1.57;1.07;;;;;;;;;;5068392;28;20023;-68
2022/09/22 03:28:39;;;;;;;3.20;1.57;;;;;;;;;;5069428;28;20166;-68
2022/09/22 03:31:05;;;;;;;3.90;1.87;;;;;;;;;;5072565;28;20025;-68
2022/09/22 03:33:32;;;;;;;1.63;1.30;;;;;;;;;;5072655;28;20375;-68
2022/09/22 03:35:59;;;;;;;4.00;1.97;;;;;;;;;;5073254;28;20344;-68
2022/09/22 03:38:25;;;;;;;1.60;1.03;;;;;;;;;;5073177;28;20514;-68
2022/09/22 03:40:52;;;;;;;2.23;1.40;;;;;;;;;;5071873;28;20395;-68
2022/09/22 03:43:19;;;;;;;3.30;1.50;;;;;;;;;;5068034;28;20836;-68
2022/09/22 03:45:46;;;;;;;2.80;1.50;;;;;;;;;;5068126;28;20025;-68
2022/09/22 03:48:13;;;;;;;1.67;0.87;;;;;;;;;;5067880;28;20017;-68
2022/09/22 03:50:39;;;;;;;2.60;1.50;;;;;;;;;;5067806;28;20028;-68
2022/09/22 03:53:06;;;;;;;2.03;1.20;;;;;;;;;;5070735;28;20357;-68
2022/09/22 03:55:33;;;;;;;7.10;1.47;;;;;;;;;;5072718;28;20032;-67
2022/09/22 03:58:00;;;;;;;1.70;1.17;;;;;;;;;;5072727;28;20048;-68
2022/09/22 04:00:27;;;;;;;0.50;0.47;;;;;;;;;;5071955;28;20031;-68
2022/09/22 04:02:54;;;;;;;1.27;0.90;;;;;;;;;;5072230;28;20050;-68
2022/09/22 04:05:21;;;;;;;1.10;0.90;;;;;;;;;;5067372;28;20100;-69
2022/09/22 04:07:47;;;;;;;2.57;1.83;;;;;;;;;;5066695;28;20036;-68
2022/09/22 04:10:14;;;;;;;2.10;1.37;;;;;;;;;;5067684;28;20712;-68
2022/09/22 04:12:41;;;;;;;5.03;2.00;;;;;;;;;;5067602;28;20016;-68
2022/09/22 04:15:07;;;;;;;1.27;0.77;;;;;;;;;;5072465;28;20037;-69
2022/09/22 04:17:35;;;;;;;2.93;1.27;;;;;;;;;;5072258;28;20039;-70
2022/09/22 04:20:03;;;;;;;1.53;1.13;;;;;;;;;;5072685;28;20028;-68
2022/09/22 04:22:33;;;;;;;1.20;0.90;;;;;;;;;;5072030;28;20043;-67
2022/09/22 04:25:00;;;;;;;1.70;0.57;;;;;;;;;;5072106;28;20028;-72
2022/09/22 04:27:27;;;;;;;0.83;0.57;;;;;;;;;;5067439;28;20740;-72
2022/09/22 04:29:53;;;;;;;7.33;2.03;;;;;;;;;;5066333;28;20074;-71
2022/09/22 04:32:22;;;;;;;2.63;1.10;;;;;;;;;;5067438;28;20020;-69
2022/09/22 04:34:49;;;;;;;1.27;0.93;;;;;;;;;;5067446;28;20479;-70
2022/09/22 04:37:15;;;;;;;4.93;1.80;;;;;;;;;;5071734;28;20095;-69
2022/09/22 04:39:42;;;;;;;1.43;0.97;;;;;;;;;;5072346;28;20021;-68
2022/09/22 04:42:09;;;;;;;0.97;0.83;;;;;;;;;;5071636;28;20368;-69
2022/09/22 04:44:35;;;;;;;1.57;0.80;;;;;;;;;;5053133;28;20032;-68
2022/09/22 04:47:02;;;;;;;1.17;0.80;;;;;;;;;;5051747;28;20017;-68
2022/09/22 04:49:29;;;;;;;1.20;1.10;;;;;;;;;;5047242;28;20486;-68
2022/09/22 04:51:56;;;;;;;1.40;1.00;;;;;;;;;;5046928;28;20486;-68
2022/09/22 04:54:23;;;;;;;1.97;0.87;;;;;;;;;;5052295;28;20024;-68
2022/09/22 04:56:49;;;;;;;1.53;1.00;;;;;;;;;;5066825;28;20033;-68
2022/09/22 04:59:16;;;;;;;0.80;0.63;;;;;;;;;;5070575;28;20036;-68
2022/09/22 05:01:43;;;;;;;3.77;1.23;;;;;;;;;;5072000;28;20044;-67
2022/09/22 05:04:09;;;;;;;3.13;1.03;;;;;;;;;;5072005;28;20024;-68
2022/09/22 05:06:36;;;;;;;3.10;1.07;;;;;;;;;;5071604;28;20032;-68
2022/09/22 05:09:03;;;;;;;1.53;1.23;;;;;;;;;;5071842;28;20028;-68
2022/09/22 05:11:30;;;;;;;1.87;1.47;;;;;;;;;;5067684;28;20028;-68
2022/09/22 05:13:57;;;;;;;0.87;0.50;;;;;;;;;;5066813;28;20039;-68
2022/09/22 05:16:24;;;;;;;1.97;0.97;;;;;;;;;;5066592;28;20033;-68
2022/09/22 05:18:51;;;;;;;0.50;0.50;;;;;;;;;;5066395;28;20025;-68
2022/09/22 05:21:18;;;;;;;1.13;0.97;;;;;;;;;;5069672;28;20104;-68
2022/09/22 05:23:45;;;;;;;0.60;0.47;;;;;;;;;;5071753;28;20074;-68
2022/09/22 05:26:12;;;;;;;0.60;0.40;;;;;;;;;;5071780;28;20116;-68
2022/09/22 05:28:39;;;;;;;0.37;0.37;;;;;;;;;;5071380;28;20034;-68
2022/09/22 05:31:06;;;;;;;1.17;0.70;;;;;;;;;;5071392;28;20037;-68
2022/09/22 05:33:32;;;;;;;5.60;0.90;;;;;;;;;;5068008;28;20110;-68
2022/09/22 05:35:59;;;;;;;0.80;0.67;;;;;;;;;;5066553;28;20020;-68
2022/09/22 05:38:26;;;;;;;0.50;0.50;;;;;;;;;;5066512;28;20028;-68
2022/09/22 05:40:52;;;;;;;8.27;0.83;;;;;;;;;;5067317;28;20495;-68
2022/09/22 05:43:19;;;;;;;0.40;0.33;;;;;;;;;;5072202;28;20031;-68
2022/09/22 05:45:46;;;;;;;1.17;0.60;;;;;;;;;;5074861;28;20020;-68
2022/09/22 05:48:12;;;;;;;6.73;1.30;;;;;;;;;;5075310;28;20033;-67
2022/09/22 05:50:39;;;;;;;1.27;0.73;;;;;;;;;;5074977;28;20510;-68
2022/09/22 05:53:07;;;;;;;1.07;0.70;;;;;;;;;;5075169;28;20021;-68
2022/09/22 05:55:34;;;;;;;3.60;0.80;;;;;;;;;;5072089;28;20426;-67
2022/09/22 05:58:01;;;;;;;0.50;0.30;;;;;;;;;;5069884;28;20029;-67
2022/09/22 06:00:28;;;;;;;1.87;0.83;;;;;;;;;;5069691;28;20531;-68
2022/09/22 06:02:54;;;;;;;0.30;0.30;;;;;;;;;;5069443;28;20032;-68
2022/09/22 06:05:21;;;;;;;0.83;0.70;;;;;;;;;;5071578;28;20095;-67
2022/09/22 06:07:58;;;;;;;1.17;1.07;;;;;;;;;;5074220;28;20032;-67
2022/09/22 06:10:25;;;;;;;19.83;1.23;;;;;;;;;;5074884;28;20029;-67
2022/09/22 06:12:51;;;;;;;2.10;0.70;;;;;;;;;;5074795;28;20057;-67
2022/09/22 06:15:18;;;;;;;0.93;0.50;;;;;;;;;;5074740;28;20070;-68
2022/09/22 06:17:45;;;;;;;0.50;0.40;;;;;;;;;;5071898;28;20032;-68
2022/09/22 06:20:11;;;;;;;0.77;0.60;;;;;;;;;;5069252;28;20166;-67
2022/09/22 06:22:38;;;;;;;0.47;0.33;;;;;;;;;;5068667;28;20052;-67
2022/09/22 06:25:07;;;;;;;0.40;0.40;;;;;;;;;;5069328;28;20037;-68
2022/09/22 06:27:34;;;;;;;2.00;0.87;;;;;;;;;;5070897;28;20348;-68
2022/09/22 06:30:01;;;;;;;0.30;0.30;;;;;;;;;;5074496;28;20056;-67
2022/09/22 06:32:27;;;;;;;1.23;0.87;;;;;;;;;;5073511;28;20024;-68
2022/09/22 06:34:54;;;;;;;0.60;0.60;;;;;;;;;;5074484;28;20031;-67
2022/09/22 06:37:22;;;;;;;1.97;0.87;;;;;;;;;;5074284;28;20020;-67
2022/09/22 06:39:48;;;;;;;0.77;0.67;;;;;;;;;;5072571;28;20467;-67
2022/09/22 06:42:16;;;;;;;0.73;0.63;;;;;;;;;;5068669;28;20044;-67
2022/09/22 06:44:44;;;;;;;0.37;0.37;;;;;;;;;;5068804;28;20407;-67
2022/09/22 06:47:11;;;;;;;1.73;1.27;;;;;;;;;;5068691;28;20020;-68
2022/09/22 06:49:38;;;;;;;0.40;0.40;;;;;;;;;;5069619;28;20032;-68
2022/09/22 06:52:05;;;;;;;1.10;0.83;;;;;;;;;;5073339;28;20021;-67
2022/09/22 06:54:32;;;;;;;0.77;0.70;;;;;;;;;;5074061;28;20108;-68
2022/09/22 06:56:58;;;;;;;1.27;1.00;;;;;;;;;;5073265;28;20098;-67
2022/09/22 06:59:25;;;;;;;2.67;0.77;;;;;;;;;;5073805;28;20529;-68
2022/09/22 07:01:52;;;;;;;2.47;1.20;;;;;;;;;;5072373;28;20028;-67
2022/09/22 07:04:18;;;;;;;0.30;0.30;;;;;;;;;;5068581;28;20375;-67
2022/09/22 07:06:45;;;;;;;1.53;1.00;;;;;;;;;;5067762;28;20028;-68
2022/09/22 07:09:12;;;;;;;0.63;0.60;;;;;;;;;;5068462;28;20125;-67
2022/09/22 07:11:39;;;;;;;1.23;0.87;;;;;;;;;;5068794;28;20048;-68
2022/09/22 07:14:07;;;;;;;1.80;1.17;;;;;;;;;;5073641;28;20103;-67
2022/09/22 07:16:34;;;;;;;1.43;1.00;;;;;;;;;;5073335;28;20357;-66
2022/09/22 07:19:01;;;;;;;0.30;0.30;;;;;;;;;;5073118;28;20032;-67
2022/09/22 07:21:34;;;;;;;1.30;0.77;;;;;;;;;;5072886;28;20505;-67
2022/09/22 07:24:01;;;;;;;2.20;1.13;;;;;;;;;;5072399;28;20550;-67
2022/09/22 07:26:32;;;;;;;4.60;1.13;;;;;;;;;;5068152;28;20031;-68
2022/09/22 07:29:00;;;;;;;0.73;0.60;;;;;;;;;;5068091;28;20104;-67
2022/09/22 07:31:28;;;;;;;1.27;0.93;;;;;;;;;;5067780;28;20089;-68
2022/09/22 07:33:55;;;;;;;1.13;0.80;;;;;;;;;;5068252;28;20063;-67
2022/09/22 07:36:27;;;;;;;1.83;1.10;;;;;;;;;;5072996;28;20031;-68
2022/09/22 07:38:56;;;;;;;1.93;1.03;;;;;;;;;;5073059;28;20017;-67
2022/09/22 07:41:29;;;;;;;1.30;0.90;;;;;;;;;;5072798;28;20025;-67
2022/09/22 07:43:56;;;;;;;0.83;0.70;;;;;;;;;;5073096;28;20031;-67
2022/09/22 07:46:23;;;;;;;7.13;1.10;;;;;;;;;;5071778;28;20066;-68
2022/09/22 07:48:50;;;;;;;1.07;0.70;;;;;;;;;;5067112;28;20032;-68
2022/09/22 07:51:20;;;;;;;0.40;0.37;;;;;;;;;;5067586;28;20028;-67
2022/09/22 07:53:49;;;;;;;3.03;1.00;;;;;;;;;;5067354;28;20031;-68
2022/09/22 07:56:17;;;;;;;1.80;1.27;;;;;;;;;;5067920;28;20056;-67
2022/09/22 07:58:53;;;;;;;0.30;0.30;;;;;;;;;;5072751;28;20020;-67
2022/09/22 08:01:20;;;;;;;1.80;1.17;;;;;;;;;;5072236;28;20037;-67
2022/09/22 08:03:47;;;;;;;2.00;0.70;;;;;;;;;;5072295;28;20025;-67
2022/09/22 08:06:15;;;;;;;0.47;0.47;;;;;;;;;;5071885;28;20025;-67
2022/09/22 08:08:43;;;;;;;1.17;0.97;;;;;;;;;;5071454;28;20502;-67
2022/09/22 08:11:14;;;;;;;1.23;0.77;;;;;;;;;;5067380;28;20048;-67
2022/09/22 08:13:42;;;;;;;0.90;0.67;;;;;;;;;;5067310;28;20016;-67
2022/09/22 08:16:10;;;;;;;0.97;0.87;;;;;;;;;;5067067;28;20017;-67
2022/09/22 08:18:38;;;;;;;1.03;0.57;;;;;;;;;;5067433;28;20042;-67
2022/09/22 08:21:05;;;;;;;0.67;0.50;;;;;;;;;;5072493;28;20448;-67
2022/09/22 08:23:32;;;;;;;2.23;0.93;;;;;;;;;;5072287;28;20082;-67
2022/09/22 08:26:04;;;;;;;0.67;0.50;;;;;;;;;;5072413;28;20044;-67
2022/09/22 08:28:30;;;;;;;1.33;0.70;;;;;;;;;;5072299;28;20063;-67
2022/09/22 08:30:58;;;;;;;1.40;0.87;;;;;;;;;;5070618;28;20036;-67
2022/09/22 08:33:28;;;;;;;1.10;0.63;;;;;;;;;;5067083;28;20020;-67
2022/09/22 08:35:56;;;;;;;1.93;1.03;;;;;;;;;;5067039;28;20051;-67
2022/09/22 08:38:23;;;;;;;0.43;0.40;;;;;;;;;;5067187;28;20021;-67
2022/09/22 08:41:01;;;;;;;0.63;0.50;;;;;;;;;;5066969;28;20468;-67
2022/09/22 08:43:28;;;;;;;0.60;0.50;;;;;;;;;;5071813;28;20048;-67
2022/09/22 08:45:55;;;;;;;0.97;0.77;;;;;;;;;;5072365;28;20467;-67
2022/09/22 08:54:09;;;;;;;0.63;0.63;;;;;;;;;;5069244;28;20039;-67
2022/09/22 08:56:56;;;;;;;15.37;0.80;;;;;;;;;;5066130;28;20033;-67
2022/09/22 08:59:31;;;;;;;0.57;0.50;;;;;;;;;;5066361;28;20028;-67
2022/09/22 09:01:59;;;;;;;;;;;;;;;;;;5066954;28;20036;-66
2022/09/22 09:04:32;;;;;;;0.70;0.63;;;;;;;;;;5069931;28;19904;-67
2022/09/22 09:07:25;;;;;;;0.73;0.53;;;;;;;;;;5071834;28;20029;-66
2022/09/22 09:09:59;;;;;;;1.43;0.90;;;;;;;;;;5029128;28;20522;-67
2022/09/22 09:12:26;;;;;;;1.13;0.80;;;;;;;;;;5057746;28;20495;-67
2022/09/22 09:14:58;;;;;;;1.37;0.77;;;;;;;;;;5071805;28;20091;-66
2022/09/22 09:17:34;;;;;;;1.83;0.60;;;;;;;;;;5070254;28;20028;-67
2022/09/22 09:20:30;;;;;;;1.33;0.80;;;;;;;;;;5070413;28;20031;-67
2022/09/22 09:22:59;;;;;;;0.50;0.40;;;;;;;;;;5070276;28;20055;-68
2022/09/22 09:25:35;;;;;;;0.87;0.53;;;;;;;;;;5050986;28;20029;-67
2022/09/22 09:28:14;;;;;;;0.57;0.47;;;;;;;;;;5055744;28;20028;-67
2022/09/22 09:30:49;;;;;;;11.93;0.63;;;;;;;;;;5055625;28;20114;-67
2022/09/22 09:33:32;;;;;;;0.63;0.57;;;;;;;;;;5057804;28;20024;-66
2022/09/22 09:35:58;;;;;;;2.47;1.20;;;;;;;;;;5075303;28;20025;-66
2022/09/22 09:38:27;;;;;;;1.47;1.00;;;;;;;;;;5072952;28;20033;-67
2022/09/22 09:41:14;;;;;;;0.33;0.30;;;;;;;;;;5069930;28;20129;-66
2022/09/22 09:43:44;;;;;;;0.60;0.50;;;;;;;;;;5069868;28;20028;-67
2022/09/22 09:46:31;;;;;;;3.37;1.17;;;;;;;;;;5069864;28;20052;-67
2022/09/22 09:49:04;;;;;;;0.60;0.53;;;;;;;;;;5072907;28;20107;-66
2022/09/22 09:51:35;;;;;;;1.17;0.80;;;;;;;;;;5074989;28;20048;-67
2022/09/22 09:54:05;;;;;;;0.90;0.60;;;;;;;;;;5074699;28;20032;-67
2022/09/22 09:56:32;;;;;;;0.70;0.70;;;;;;;;;;5074644;28;20094;-66
2022/09/22 10:01:45;;;;;;;0.80;0.70;;;;;;;;;;5070127;28;20102;-67
2022/09/22 10:04:18;;;;;;;0.87;0.67;;;;;;;;;;5069367;28;20380;-67
2022/09/22 10:06:46;;;;;;;1.03;0.67;;;;;;;;;;5069187;28;20090;-67
2022/09/22 10:09:23;;;;;;;1.20;0.83;;;;;;;;;;5069550;28;20445;-66
2022/09/22 10:12:00;;;;;;;1.50;1.17;;;;;;;;;;5074068;28;20096;-66
2022/09/22 10:14:29;;;;;;;0.93;0.80;;;;;;;;;;5074379;28;20028;-66
2022/09/22 10:16:55;;;;;;;1.30;0.83;;;;;;;;;;5074236;28;20070;-66
2022/09/22 10:19:33;;;;;;;1.27;0.90;;;;;;;;;;5074721;28;20036;-66
2022/09/22 10:22:35;;;;;;;2.03;1.10;;;;;;;;;;5074238;28;20031;-66
2022/09/22 10:25:02;;;;;;;0.30;0.30;;;;;;;;;;4987360;28;20036;-66
2022/09/22 10:27:30;;;;;;;0.80;0.80;;;;;;;;;;5052267;28;20044;-67
2022/09/22 10:30:09;;;;;;;0.93;0.70;;;;;;;;;;5069311;28;20474;-66
2022/09/22 10:32:40;;;;;;;0.77;0.60;;;;;;;;;;5070134;28;20020;-67
2022/09/22 10:35:26;;;;;;;1.03;0.80;;;;;;;;;;5074339;28;20028;-66
2022/09/22 10:37:56;;;;;;;1.00;0.77;;;;;;;;;;5073756;28;20027;-66
2022/09/22 10:40:23;;;;;;;0.77;0.67;;;;;;;;;;5074209;28;20383;-66
2022/09/22 10:42:52;;;;;;;0.37;0.37;;;;;;;;;;5073809;28;20024;-66
2022/09/22 10:45:21;;;;;;;0.90;0.80;;;;;;;;;;5071157;28;20082;-66
2022/09/22 10:47:59;;;;;;;1.27;1.07;;;;;;;;;;5068901;28;20475;-66
2022/09/22 10:50:44;;;;;;;1.00;0.77;;;;;;;;;;5068748;28;20039;-66
2022/09/22 10:53:10;;;;;;;;;;;;;;;;;;5068910;28;20100;-66
2022/09/22 10:55:43;;;;;;;1.10;0.80;;;;;;;;;;5071274;28;20374;-66
2022/09/22 10:58:17;;;;;;;1.80;0.93;;;;;;;;;;5073848;28;20107;-66
2022/09/22 11:00:44;;;;;;;0.47;0.43;;;;;;;;;;5073609;28;20035;-66
2022/09/22 11:03:16;;;;;;;1.77;1.03;;;;;;;;;;5073835;28;20028;-66
2022/09/22 11:14:14;;;;;;;0.80;0.73;;;;;;;;;;5068340;28;20067;-66
2022/09/22 11:16:44;;;;;;;4.27;1.33;;;;;;;;;;5068134;28;20035;-66
2022/09/22 11:19:12;;;;;;;0.57;0.40;;;;;;;;;;5073575;28;20041;-66
2022/09/22 11:21:46;;;;;;;0.77;0.50;;;;;;;;;;5072799;28;20090;-66
2022/09/22 11:24:22;;;;;;;1.33;0.93;;;;;;;;;;5073423;28;20095;-66
2022/09/22 11:26:52;;;;;;;1.07;0.70;;;;;;;;;;5072795;28;20498;-66
2022/09/22 11:29:25;;;;;;;0.23;0.23;;;;;;;;;;5071987;28;20082;-66
2022/09/22 11:32:10;;;;;;;0.47;0.40;;;;;;;;;;5067335;28;20029;-67
2022/09/22 11:34:43;;;;;;;0.70;0.47;;;;;;;;;;5067946;28;20021;-66
2022/09/22 11:37:25;;;;;;;3.30;1.57;;;;;;;;;;5067535;28;20032;-66
2022/09/22 11:39:55;;;;;;;1.90;0.93;;;;;;;;;;5069888;28;20075;-66
2022/09/22 11:42:33;;;;;;;1.63;1.03;;;;;;;;;;5072698;28;20086;-66
2022/09/22 11:45:01;;;;;;;1.33;1.17;;;;;;;;;;5072731;28;20023;-66
2022/09/22 11:47:47;;;;;;;1.83;0.77;;;;;;;;;;5072846;28;20133;-66
2022/09/22 11:50:14;;;;;;;0.70;0.60;;;;;;;;;;5072968;28;20101;-66
2022/09/22 11:52:42;;;;;;;1.27;1.00;;;;;;;;;;5068945;28;20578;-66
2022/09/22 11:55:12;;;;;;;0.73;0.70;;;;;;;;;;5067628;28;20028;-66
2022/09/22 11:57:41;;;;;;;1.83;0.90;;;;;;;;;;5067325;28;20033;-66
2022/09/22 12:00:16;;;;;;;1.03;0.93;;;;;;;;;;5067475;28;20029;-66
2022/09/22 12:02:45;;;;;;;;;;;;;;;;;;5070692;28;20028;-66
2022/09/22 12:05:17;;;;;;;2.63;1.13;;;;;;;;;;5072660;28;20373;-68
2022/09/22 12:07:58;;;;;;;0.80;0.70;;;;;;;;;;5072611;28;20043;-66
2022/09/22 12:10:43;;;;;;;3.13;1.40;;;;;;;;;;5072567;28;20020;-66
2022/09/22 12:13:21;;;;;;;0.50;0.50;;;;;;;;;;5072285;28;20032;-66
2022/09/22 12:16:06;;;;;;;1.37;0.80;;;;;;;;;;5067269;28;20348;-66
2022/09/22 12:18:43;;;;;;;3.92;2.50;;;;;;;;;;5066898;28;20107;-66
2022/09/22 12:21:25;;;;;;;1.63;0.97;;;;;;;;;;5067131;28;20033;-66
2022/09/22 12:23:52;;;;;;;1.57;1.03;;;;;;;;;;5067607;28;20043;-66
2022/09/22 12:26:27;;;;;;;1.60;1.03;;;;;;;;;;5072473;28;20028;-66
2022/09/22 12:28:54;;;;;;;2.70;1.67;;;;;;;;;;5072360;28;20024;-66
2022/09/22 12:31:21;;;;;;;1.93;1.20;;;;;;;;;;5071881;28;20471;-66
2022/09/22 12:33:52;;;;;;;3.40;2.10;;;;;;;;;;5072433;28;20103;-66
2022/09/22 12:36:39;;;;;;;4.93;1.47;;;;;;;;;;5070137;28;20189;-66
2022/09/22 12:39:09;;;;;;;1.87;1.13;;;;;;;;;;5066794;28;20064;-66
2022/09/22 12:41:46;;;;;;;2.23;1.10;;;;;;;;;;5066641;28;20090;-66
2022/09/22 12:44:16;;;;;;;5.47;1.90;;;;;;;;;;5066912;28;20016;-66
2022/09/22 12:46:43;;;;;;;3.73;2.73;;;;;;;;;;5068937;28;20017;-66
2022/09/22 12:49:12;;;;;;;2.30;1.70;;;;;;;;;;5071809;28;20016;-66
2022/09/22 12:51:39;;;;;;;2.10;1.57;;;;;;;;;;5074413;28;20039;-66
2022/09/22 12:54:25;;;;;;;4.67;1.80;;;;;;;;;;5076283;28;20109;-66
2022/09/22 12:57:02;;;;;;;3.63;1.47;;;;;;;;;;5075693;28;20033;-66
2022/09/22 12:59:38;;;;;;;1.00;0.83;;;;;;;;;;5072341;28;20025;-66
2022/09/22 13:02:17;;;;;;;3.00;2.07;;;;;;;;;;5070751;28;20097;-66
2022/09/22 13:04:50;;;;;;;18.23;2.17;;;;;;;;;;5070969;28;20104;-65
2022/09/22 13:07:35;;;;;;;1.33;1.10;;;;;;;;;;5069992;28;20711;-66
2022/09/22 13:10:23;;;;;;;0.77;0.77;;;;;;;;;;5072984;28;20036;-65
2022/09/22 13:13:16;;;;;;;1.47;1.30;;;;;;;;;;5075195;28;20021;-66
2022/09/22 13:15:48;;;;;;;4.37;1.63;;;;;;;;;;5045634;28;20032;-66
2022/09/22 13:18:33;;;;;;;0.97;0.83;;;;;;;;;;5075295;28;20028;-66
2022/09/22 13:21:03;;;;;;;5.43;1.60;;;;;;;;;;5072865;28;20041;-66
2022/09/22 13:23:30;;;;;;;2.07;1.33;;;;;;;;;;5070082;28;20033;-66
2022/09/22 13:26:04;;;;;;;3.23;1.70;;;;;;;;;;5070476;28;20494;-66
2022/09/22 13:28:31;;;;;;;1.75;1.35;;;;;;;;;;5070004;28;20028;-66
2022/09/22 13:31:09;;;;;;;1.03;0.90;;;;;;;;;;5072170;28;20012;-66
2022/09/22 13:33:36;;;;;;;2.23;1.73;;;;;;;;;;5075307;28;20024;-66
2022/09/22 13:36:02;;;;;;;1.03;0.93;;;;;;;;;;5075546;28;20577;-66
2022/09/22 13:38:29;;;;;;;3.67;1.63;;;;;;;;;;5075071;28;20024;-66
2022/09/22 13:40:56;;;;;;;1.23;0.60;;;;;;;;;;5075432;28;20031;-66
2022/09/22 13:43:26;;;;;;;2.33;1.47;;;;;;;;;;5072738;28;20420;-66
2022/09/22 13:45:53;;;;;;;6.53;1.27;;;;;;;;;;5070070;28;20020;-67
2022/09/22 13:48:20;;;;;;;1.73;1.33;;;;;;;;;;5069662;28;20032;-66
2022/09/22 13:50:54;;;;;;;9.17;1.77;;;;;;;;;;5069973;28;20028;-67
2022/09/22 13:53:21;;;;;;;5.00;1.13;;;;;;;;;;5072151;28;20094;-67
2022/09/22 13:55:49;;;;;;;3.77;1.27;;;;;;;;;;5075214;28;20025;-66
2022/09/22 13:58:21;;;;;;;1.57;1.10;;;;;;;;;;5074844;28;20024;-66
2022/09/22 14:00:53;;;;;;;6.67;1.30;;;;;;;;;;5074658;28;20021;-67
2022/09/22 14:03:20;;;;;;;2.07;1.27;;;;;;;;;;5075006;28;20048;-67
2022/09/22 14:05:48;;;;;;;2.37;1.43;;;;;;;;;;5071990;28;20046;-67
2022/09/22 14:08:18;;;;;;;2.97;1.47;;;;;;;;;;5069399;28;21895;-67
2022/09/22 14:10:45;;;;;;;0.93;0.83;;;;;;;;;;5069575;28;20028;-67
2022/09/22 14:13:30;;;;;;;3.73;1.43;;;;;;;;;;5069333;28;20025;-68
2022/09/22 14:15:57;;;;;;;3.70;1.27;;;;;;;;;;5072699;28;20380;-67
2022/09/22 14:18:26;;;;;;;3.73;1.43;;;;;;;;;;5074583;28;20025;-67
2022/09/22 14:20:54;;;;;;;2.80;1.20;;;;;;;;;;5073963;28;20016;-67
2022/09/22 14:23:31;;;;;;;1.67;1.10;;;;;;;;;;5074552;28;20108;-67
2022/09/22 14:25:58;;;;;;;1.23;0.90;;;;;;;;;;5074591;28;20036;-67
2022/09/22 14:28:28;;;;;;;1.13;0.93;;;;;;;;;;5070626;28;20024;-67
2022/09/22 14:30:55;;;;;;;0.97;0.83;;;;;;;;;;5069002;28;20028;-67
2022/09/22 14:33:27;;;;;;;5.73;1.60;;;;;;;;;;5069192;28;20044;-67
2022/09/22 14:36:07;;;;;;;2.57;1.03;;;;;;;;;;5069049;28;20071;-68
2022/09/22 14:38:39;;;;;;;0.63;0.50;;;;;;;;;;5072886;28;20037;-68
2022/09/22 14:41:20;;;;;;;1.23;0.90;;;;;;;;;;5074254;28;20036;-67
2022/09/22 14:43:49;;;;;;;1.97;1.07;;;;;;;;;;5074111;28;20033;-67
2022/09/22 14:46:22;;;;;;;7.73;1.20;;;;;;;;;;5073915;28;20416;-68
2022/09/22 14:48:49;;;;;;;1.67;0.77;;;;;;;;;;5074137;28;20020;-68
2022/09/22 14:51:21;;;;;;;1.37;1.03;;;;;;;;;;5068987;28;20028;-68
2022/09/22 14:53:49;;;;;;;1.50;1.00;;;;;;;;;;5068857;28;20028;-68
2022/09/22 14:56:19;;;;;;;20.53;1.23;;;;;;;;;;5050541;28;20383;-67
2022/09/22 14:58:49;;;;;;;2.53;1.40;;;;;;;;;;5068306;28;20463;-67
2022/09/22 15:04:09;;;;;;;5.20;1.00;;;;;;;;;;5073824;28;20097;-68
2022/09/22 15:06:38;;;;;;;2.47;1.10;;;;;;;;;;5073846;28;20023;-68
2022/09/22 15:09:06;;;;;;;1.77;1.10;;;;;;;;;;5072419;28;20037;-68
2022/09/22 15:12:05;;;;;;;3.60;0.90;;;;;;;;;;5071109;28;20118;-68
2022/09/22 15:14:36;;;;;;;2.10;1.23;;;;;;;;;;5023414;28;20076;-67
2022/09/22 15:19:58;;;;;;;1.30;0.90;;;;;;;;;;5068487;28;20035;-68
2022/09/22 15:22:26;;;;;;;2.37;0.97;;;;;;;;;;5070727;28;20490;-68
2022/09/22 15:24:53;;;;;;;1.23;0.87;;;;;;;;;;5072445;28;20055;-68